createdAt,value
2023-02-05T00:00:00.262Z,3.22
2023-02-05T00:02:47.703Z,3.40
2023-02-05T00:05:35.451Z,3.30
2023-02-05T00:08:25.269Z,3.67
2023-02-05T00:11:13.015Z,3.95
2023-02-05T00:14:00.251Z,3.00
2023-02-05T00:16:48.146Z,3.88
2023-02-05T00:19:35.628Z,4.30
2023-02-05T00:22:23.280Z,3.53
2023-02-05T00:25:12.185Z,3.95
2023-02-05T00:27:59.543Z,3.70
2023-02-05T00:30:47.363Z,4.18
2023-02-05T00:33:36.533Z,3.40
2023-02-05T00:36:25.526Z,4.15
2023-02-05T00:39:14.271Z,4.32
2023-02-05T00:42:03.338Z,4.63
2023-02-05T00:44:50.762Z,4.55
2023-02-05T00:47:38.319Z,3.67
2023-02-05T00:50:25.966Z,4.28
2023-02-05T00:53:13.762Z,4.07
2023-02-05T00:56:01.297Z,3.80
2023-02-05T00:58:51.269Z,4.20
2023-02-05T01:01:38.978Z,3.63
2023-02-05T01:04:26.451Z,3.03
2023-02-05T01:07:14.197Z,4.15
2023-02-05T01:10:01.952Z,3.58
2023-02-05T01:12:50.257Z,4.53
2023-02-05T01:15:39.116Z,4.50
2023-02-05T01:18:27.020Z,4.18
2023-02-05T01:21:15.040Z,3.90
2023-02-05T01:24:02.662Z,3.75
2023-02-05T01:26:58.406Z,4.15
2023-02-05T01:29:46.118Z,4.20
2023-02-05T01:32:35.696Z,3.03
2023-02-05T01:35:23.169Z,4.07
2023-02-05T01:38:10.761Z,3.95
2023-02-05T01:41:00.043Z,3.47
2023-02-05T01:44:10.283Z,3.70
2023-02-05T01:46:58.332Z,3.47
2023-02-05T01:49:47.245Z,3.50
2023-02-05T01:52:34.980Z,3.80
2023-02-05T01:55:23.119Z,3.95
2023-02-05T01:58:11.283Z,3.72
2023-02-05T02:00:59.246Z,5.05
2023-02-05T02:03:47.454Z,4.53
2023-02-05T02:06:37.359Z,3.53
2023-02-05T02:09:25.023Z,3.80
2023-02-05T02:12:15.195Z,4.18
2023-02-05T02:15:08.862Z,3.92
2023-02-05T02:18:22.530Z,3.92
2023-02-05T02:21:40.263Z,4.10
2023-02-05T02:24:43.996Z,3.85
2023-02-05T02:27:47.354Z,5.68
2023-02-05T02:30:42.355Z,3.78
2023-02-05T02:33:34.572Z,3.83
2023-02-05T02:36:27.823Z,4.22
2023-02-05T02:39:21.633Z,4.13
2023-02-05T02:42:14.495Z,3.88
2023-02-05T02:45:06.758Z,4.20
2023-02-05T02:47:58.676Z,4.68
2023-02-05T02:50:50.161Z,4.75
2023-02-05T02:53:41.118Z,5.60
2023-02-05T02:56:32.516Z,4.43
2023-02-05T02:59:24.483Z,5.55
2023-02-05T03:02:16.184Z,4.07
2023-02-05T03:05:08.812Z,4.60
2023-02-05T03:08:00.630Z,5.38
2023-02-05T03:10:52.612Z,4.30
2023-02-05T03:13:40.401Z,4.70
2023-02-05T03:16:28.750Z,4.35
2023-02-05T03:19:17.859Z,3.75
2023-02-05T03:22:07.394Z,4.03
2023-02-05T03:24:55.218Z,4.22
2023-02-05T03:27:44.441Z,3.88
2023-02-05T03:30:40.000Z,4.93
2023-02-05T03:33:45.225Z,3.67
2023-02-05T03:36:41.749Z,4.78
2023-02-05T03:39:43.867Z,4.07
2023-02-05T03:42:42.058Z,4.45
2023-02-05T03:45:40.130Z,3.63
2023-02-05T03:48:53.564Z,3.47
2023-02-05T03:51:49.865Z,3.65
2023-02-05T03:54:44.112Z,3.55
2023-02-05T03:57:43.796Z,4.60
2023-02-05T04:00:33.475Z,5.07
2023-02-05T04:03:22.937Z,5.03
2023-02-05T04:06:11.552Z,5.80
2023-02-05T04:09:00.526Z,5.45
2023-02-05T04:11:48.336Z,5.35
2023-02-05T04:14:38.807Z,4.63
2023-02-05T04:17:26.311Z,5.20
2023-02-05T04:20:14.558Z,5.10
2023-02-05T04:23:02.704Z,5.40
2023-02-05T04:25:56.277Z,4.72
2023-02-05T04:28:51.949Z,4.53
2023-02-05T04:31:39.675Z,4.32
2023-02-05T04:34:27.421Z,3.90
2023-02-05T04:37:16.000Z,4.20
2023-02-05T04:40:03.878Z,4.50
2023-02-05T04:42:52.723Z,4.00
2023-02-05T04:45:40.467Z,4.13
2023-02-05T04:48:27.835Z,4.97
2023-02-05T04:51:16.251Z,4.80
2023-02-05T04:54:03.830Z,5.30
2023-02-05T04:56:51.577Z,6.47
2023-02-05T04:59:40.630Z,4.95
2023-02-05T05:02:28.417Z,6.03
2023-02-05T05:05:16.387Z,10.52
2023-02-05T05:08:03.988Z,10.85
2023-02-05T05:10:51.489Z,10.60
2023-02-05T05:13:39.510Z,12.05
2023-02-05T05:16:28.306Z,9.18
2023-02-05T05:19:15.900Z,7.40
2023-02-05T05:22:03.590Z,6.65
2023-02-05T05:24:51.399Z,6.50
2023-02-05T05:27:38.979Z,6.15
2023-02-05T05:30:26.498Z,6.57
2023-02-05T05:33:15.700Z,6.97
2023-02-05T05:36:03.475Z,10.57
2023-02-05T05:38:51.104Z,17.90
2023-02-05T05:41:55.848Z,11.32
2023-02-05T05:44:43.243Z,7.80
2023-02-05T05:47:30.728Z,8.00
2023-02-05T05:50:19.962Z,7.47
2023-02-05T05:53:07.418Z,7.43
2023-02-05T05:55:54.906Z,8.82
2023-02-05T05:58:42.527Z,7.28
2023-02-05T06:01:30.270Z,7.78
2023-02-05T06:04:18.152Z,11.10
2023-02-05T06:07:07.465Z,12.18
2023-02-05T06:09:55.063Z,10.00
2023-02-05T06:12:42.580Z,9.75
2023-02-05T06:15:30.177Z,9.10
2023-02-05T06:18:17.826Z,9.05
2023-02-05T06:21:05.942Z,9.23
2023-02-05T06:23:54.588Z,9.95
2023-02-05T06:26:42.381Z,8.48
2023-02-05T06:29:29.721Z,7.95
2023-02-05T06:32:17.192Z,7.10
2023-02-05T06:35:05.061Z,6.32
2023-02-05T06:37:52.501Z,6.57
2023-02-05T06:40:41.094Z,7.68
2023-02-05T06:43:29.076Z,6.60
2023-02-05T06:46:16.517Z,7.53
2023-02-05T06:49:04.049Z,7.63
2023-02-05T06:51:51.553Z,7.13
2023-02-05T06:54:39.078Z,8.02
2023-02-05T06:57:28.362Z,7.28
2023-02-05T07:00:17.586Z,6.50
2023-02-05T07:03:05.283Z,7.50
2023-02-05T07:05:52.829Z,9.35
2023-02-05T07:08:40.308Z,9.45
2023-02-05T07:11:28.220Z,9.55
2023-02-05T07:14:17.426Z,9.20
2023-02-05T07:17:05.466Z,8.25
2023-02-05T07:19:53.300Z,9.85
2023-02-05T07:22:40.881Z,10.20
2023-02-05T07:25:28.938Z,10.93
2023-02-05T07:28:16.321Z,13.00
2023-02-05T07:31:07.615Z,10.23
2023-02-05T07:33:55.169Z,11.73
2023-02-05T07:36:42.892Z,12.55
2023-02-05T07:39:30.170Z,14.10
2023-02-05T07:42:17.637Z,14.23
2023-02-05T07:45:11.434Z,13.50
2023-02-05T07:48:00.101Z,12.82
2023-02-05T07:50:47.785Z,15.02
2023-02-05T07:53:35.248Z,16.33
2023-02-05T07:56:22.780Z,12.13
2023-02-05T07:59:11.618Z,12.27
2023-02-05T08:01:59.346Z,12.30
2023-02-05T08:04:48.054Z,10.48
2023-02-05T08:07:37.399Z,11.18
2023-02-05T08:10:25.267Z,15.43
2023-02-05T08:13:13.253Z,12.18
2023-02-05T08:16:01.307Z,10.05
2023-02-05T08:18:50.285Z,10.32
2023-02-05T08:21:39.175Z,8.27
2023-02-05T08:24:26.986Z,8.90
2023-02-05T08:27:14.610Z,7.97
2023-02-05T08:30:02.094Z,6.82
2023-02-05T08:32:50.527Z,5.40
2023-02-05T08:35:38.230Z,5.63
2023-02-05T08:38:26.898Z,6.45
2023-02-05T08:41:15.631Z,5.70
2023-02-05T08:44:03.282Z,6.03
2023-02-05T08:46:50.772Z,4.88
2023-02-05T08:49:38.583Z,5.28
2023-02-05T08:52:25.849Z,5.55
2023-02-05T08:55:15.634Z,4.50
2023-02-05T08:58:02.945Z,5.25
2023-02-05T09:00:50.851Z,5.38
2023-02-05T09:03:38.994Z,5.57
2023-02-05T09:06:26.618Z,5.78
2023-02-05T09:09:14.551Z,5.60
2023-02-05T09:12:03.829Z,5.40
2023-02-05T09:14:51.532Z,5.10
2023-02-05T09:17:38.991Z,4.88
2023-02-05T09:20:26.553Z,4.68
2023-02-05T09:23:16.590Z,4.30
2023-02-05T09:26:04.706Z,4.30
2023-02-05T09:28:53.579Z,5.55
2023-02-05T09:31:42.678Z,4.60
2023-02-05T09:34:30.547Z,3.85
2023-02-05T09:37:18.658Z,5.10
2023-02-05T09:40:22.447Z,4.38
2023-02-05T09:43:24.681Z,5.22
2023-02-05T09:46:18.570Z,5.35
2023-02-05T09:49:14.933Z,8.00
2023-02-05T09:52:05.262Z,5.60
2023-02-05T09:54:57.165Z,6.03
2023-02-05T09:57:45.553Z,3.97
2023-02-05T10:00:46.781Z,3.40
2023-02-05T10:03:43.423Z,4.03
2023-02-05T10:06:55.446Z,3.80
2023-02-05T10:09:56.175Z,3.97
2023-02-05T10:12:55.683Z,4.03
2023-02-05T10:15:58.234Z,3.17
2023-02-05T10:18:58.666Z,3.60
2023-02-05T10:22:11.099Z,4.50
2023-02-05T10:25:45.432Z,4.00
2023-02-05T10:28:49.694Z,4.50
2023-02-05T10:31:43.691Z,4.18
2023-02-05T10:34:47.462Z,4.20
2023-02-05T10:37:42.934Z,3.63
2023-02-05T10:40:35.187Z,2.47
2023-02-05T10:43:26.664Z,3.20
2023-02-05T10:46:15.785Z,3.45
2023-02-05T10:49:09.720Z,2.35
2023-02-05T10:51:58.692Z,2.28
2023-02-05T10:54:47.582Z,2.47
2023-02-05T10:57:36.733Z,2.58
2023-02-05T11:00:25.318Z,2.50
2023-02-05T11:03:18.615Z,2.38
2023-02-05T11:06:12.023Z,2.25
2023-02-05T11:09:00.847Z,2.28
2023-02-05T11:11:53.068Z,2.70
2023-02-05T11:14:44.690Z,2.40
2023-02-05T11:17:35.847Z,2.92
2023-02-05T11:20:30.363Z,2.33
2023-02-05T11:23:19.728Z,1.90
2023-02-05T11:26:18.918Z,2.50
2023-02-05T11:29:20.787Z,2.20
2023-02-05T11:32:20.012Z,1.80
2023-02-05T11:35:25.495Z,1.73
2023-02-05T11:38:29.682Z,2.25
2023-02-05T11:41:29.551Z,2.08
2023-02-05T11:44:20.890Z,2.70
2023-02-05T11:47:10.083Z,1.77
2023-02-05T11:49:59.366Z,1.90
2023-02-05T11:52:47.126Z,2.10
2023-02-05T11:55:36.303Z,2.95
2023-02-05T11:58:36.619Z,2.38
2023-02-05T12:01:29.153Z,2.17
2023-02-05T12:04:20.041Z,2.00
2023-02-05T12:07:14.374Z,1.63
2023-02-05T12:10:01.651Z,1.88
2023-02-05T12:13:01.254Z,2.45
2023-02-05T12:16:00.472Z,2.33
2023-02-05T12:18:58.170Z,2.00
2023-02-05T12:21:50.755Z,2.60
2023-02-05T12:24:48.789Z,2.70
2023-02-05T12:27:53.319Z,1.80
2023-02-05T12:31:00.221Z,1.70
2023-02-05T12:36:56.929Z,2.20
2023-02-05T12:39:47.988Z,1.50
2023-02-05T12:42:38.225Z,9.57
2023-02-05T12:45:38.751Z,6.95
2023-02-05T12:48:42.273Z,3.15
2023-02-05T12:51:46.460Z,2.40
2023-02-05T12:54:50.476Z,3.95
2023-02-05T12:57:43.873Z,1.80
2023-02-05T13:00:38.310Z,1.75
2023-02-05T13:03:33.415Z,1.80
2023-02-05T13:06:27.296Z,1.98
2023-02-05T13:09:20.352Z,2.28
2023-02-05T13:12:11.713Z,2.58
2023-02-05T13:15:06.884Z,1.90
2023-02-05T13:18:00.595Z,2.75
2023-02-05T13:21:10.892Z,2.88
2023-02-05T13:24:23.447Z,1.77
2023-02-05T13:27:40.366Z,1.90
2023-02-05T13:30:32.920Z,2.40
2023-02-05T13:33:20.662Z,2.38
2023-02-05T13:36:43.360Z,2.03
2023-02-05T13:39:59.861Z,2.15
2023-02-05T13:43:12.284Z,2.58
2023-02-05T13:46:33.414Z,2.65
2023-02-05T13:49:59.143Z,2.40
2023-02-05T13:53:19.505Z,3.63
2023-02-05T13:56:42.744Z,3.58
2023-02-05T13:59:37.132Z,2.70
2023-02-05T14:02:38.565Z,2.42
2023-02-05T14:05:31.811Z,3.95
2023-02-05T14:08:25.878Z,2.50
2023-02-05T14:11:13.483Z,2.53
2023-02-05T14:14:23.987Z,2.55
2023-02-05T14:17:54.343Z,2.13
2023-02-05T14:20:45.713Z,2.78
2023-02-05T14:23:59.086Z,2.92
2023-02-05T14:26:48.151Z,2.47
2023-02-05T14:29:44.488Z,1.95
2023-02-05T14:32:57.621Z,2.50
2023-02-05T14:35:48.941Z,2.97
2023-02-05T14:38:38.436Z,3.53
2023-02-05T14:41:29.165Z,2.92
2023-02-05T14:44:21.215Z,3.42
2023-02-05T14:47:20.732Z,2.78
2023-02-05T14:50:11.177Z,3.03
2023-02-05T14:53:01.559Z,2.65
2023-02-05T14:55:50.370Z,3.00
2023-02-05T14:58:44.403Z,4.20
2023-02-05T15:01:43.897Z,4.53
2023-02-05T15:04:42.597Z,4.75
2023-02-05T15:07:30.745Z,3.78
2023-02-05T15:10:22.901Z,3.90
2023-02-05T15:13:13.174Z,3.70
2023-02-05T15:16:20.882Z,3.85
2023-02-05T15:19:10.916Z,3.20
2023-02-05T15:21:59.871Z,10.10
2023-02-05T15:24:49.517Z,6.20
2023-02-05T15:27:43.885Z,4.45
2023-02-05T15:30:47.916Z,4.25
2023-02-05T15:33:50.736Z,3.75
2023-02-05T15:36:43.333Z,4.95
2023-02-05T15:39:36.232Z,4.97
2023-02-05T15:42:30.834Z,4.55
2023-02-05T15:45:19.564Z,5.25
2023-02-05T15:48:13.268Z,4.60
2023-02-05T15:51:05.998Z,4.35
2023-02-05T15:53:57.736Z,3.97
2023-02-05T15:56:49.260Z,4.22
2023-02-05T15:59:36.752Z,3.67
2023-02-05T16:02:26.701Z,4.70
2023-02-05T16:05:19.888Z,3.63
2023-02-05T16:08:21.399Z,4.47
2023-02-05T16:11:09.076Z,4.93
2023-02-05T16:14:08.596Z,5.25
2023-02-05T16:17:07.135Z,4.10
2023-02-05T16:19:59.422Z,4.80
2023-02-05T16:22:52.637Z,3.90
2023-02-05T16:25:45.659Z,5.05
2023-02-05T16:28:38.667Z,5.47
2023-02-05T16:31:27.675Z,5.38
2023-02-05T16:34:18.784Z,5.88
2023-02-05T16:37:10.211Z,5.45
2023-02-05T16:39:59.627Z,5.22
2023-02-05T16:42:48.851Z,5.40
2023-02-05T16:45:36.323Z,5.20
2023-02-05T16:48:26.298Z,5.28
2023-02-05T16:51:31.795Z,6.32
2023-02-05T16:54:34.939Z,9.52
2023-02-05T16:57:32.350Z,14.38
2023-02-05T17:00:25.178Z,14.68
2023-02-05T17:03:19.359Z,17.20
2023-02-05T17:06:14.564Z,17.90
2023-02-05T17:09:04.969Z,16.33
2023-02-05T17:11:52.693Z,16.67
2023-02-05T17:14:40.162Z,16.15
2023-02-05T17:17:30.470Z,16.02
2023-02-05T17:20:21.781Z,15.75
2023-02-05T17:23:14.658Z,15.80
2023-02-05T17:26:02.440Z,16.77
2023-02-05T17:28:53.836Z,16.30
2023-02-05T17:31:41.855Z,18.48
2023-02-05T17:34:30.966Z,16.75
2023-02-05T17:37:18.919Z,17.35
2023-02-05T17:40:07.418Z,15.95
2023-02-05T17:42:55.236Z,19.10
2023-02-05T17:45:44.349Z,18.10
2023-02-05T17:48:32.004Z,22.17
2023-02-05T17:51:22.876Z,22.98
2023-02-05T17:54:14.961Z,26.42
2023-02-05T17:57:14.556Z,23.33
2023-02-05T18:00:02.058Z,27.15
2023-02-05T18:02:59.687Z,26.17
2023-02-05T18:05:47.025Z,27.15
2023-02-05T18:08:37.220Z,25.48
2023-02-05T18:11:25.065Z,26.63
2023-02-05T18:14:12.747Z,27.13
2023-02-05T18:17:00.363Z,25.17
2023-02-05T18:19:47.980Z,26.85
2023-02-05T18:22:35.443Z,25.35
2023-02-05T18:25:24.420Z,20.13
2023-02-05T18:28:12.131Z,23.63
2023-02-05T18:31:01.473Z,20.33
2023-02-05T18:33:51.682Z,18.17
2023-02-05T18:36:39.280Z,17.38
2023-02-05T18:39:28.584Z,16.13
2023-02-05T18:42:17.571Z,15.30
2023-02-05T18:45:05.734Z,14.68
2023-02-05T18:47:53.922Z,13.43
2023-02-05T18:50:41.298Z,13.95
2023-02-05T18:53:29.130Z,14.15
2023-02-05T18:56:18.873Z,12.35
2023-02-05T18:59:16.636Z,11.88
2023-02-05T19:02:04.006Z,11.32
2023-02-05T19:04:55.737Z,10.73
2023-02-05T19:07:44.938Z,10.65
2023-02-05T19:10:32.913Z,9.07
2023-02-05T19:13:20.428Z,9.00
2023-02-05T19:16:12.797Z,9.82
2023-02-05T19:19:00.878Z,9.23
2023-02-05T19:21:50.851Z,10.10
2023-02-05T19:24:40.454Z,9.38
2023-02-05T19:27:28.244Z,9.93
2023-02-05T19:30:15.891Z,9.43
2023-02-05T19:33:04.861Z,11.75
2023-02-05T19:35:52.707Z,12.80
2023-02-05T19:38:42.270Z,14.65
2023-02-05T19:41:30.419Z,16.08
2023-02-05T19:44:18.665Z,17.35
2023-02-05T19:47:06.903Z,18.63
2023-02-05T19:49:55.897Z,20.50
2023-02-05T19:52:44.360Z,20.00
2023-02-05T19:55:33.319Z,17.38
2023-02-05T19:58:21.306Z,18.98
2023-02-05T20:01:12.981Z,17.65
2023-02-05T20:04:02.362Z,19.50
2023-02-05T20:06:52.937Z,20.40
2023-02-05T20:09:40.362Z,19.50
2023-02-05T20:12:28.013Z,18.83
2023-02-05T20:15:15.872Z,19.30
2023-02-05T20:18:03.503Z,18.95
2023-02-05T20:20:51.090Z,19.63
2023-02-05T20:23:40.363Z,19.33
2023-02-05T20:26:28.284Z,18.95
2023-02-05T20:29:33.393Z,19.75
2023-02-05T20:32:20.762Z,18.70
2023-02-05T20:35:08.701Z,18.45
2023-02-05T20:37:56.364Z,19.60
2023-02-05T20:40:45.187Z,18.73
2023-02-05T20:43:32.642Z,19.67
2023-02-05T20:46:20.846Z,18.20
2023-02-05T20:49:08.926Z,17.75
2023-02-05T20:51:56.151Z,19.17
2023-02-05T20:54:43.868Z,18.90
2023-02-05T20:57:33.032Z,19.75
2023-02-05T21:00:23.315Z,21.15
2023-02-05T21:03:10.861Z,19.58
2023-02-05T21:05:58.535Z,20.33
2023-02-05T21:08:47.888Z,20.58
2023-02-05T21:11:35.272Z,22.23
2023-02-05T21:14:24.987Z,28.23
2023-02-05T21:17:12.441Z,27.33
2023-02-05T21:19:59.706Z,26.38
2023-02-05T21:22:47.197Z,25.90
2023-02-05T21:25:36.879Z,26.33
2023-02-05T21:28:24.963Z,27.33
2023-02-05T21:31:13.875Z,34.67
2023-02-05T21:34:02.197Z,41.45
2023-02-05T21:36:49.907Z,46.38
2023-02-05T21:39:37.442Z,43.15
2023-02-05T21:42:25.052Z,39.58
2023-02-05T21:45:12.612Z,38.50
2023-02-05T21:48:01.586Z,39.28
2023-02-05T21:50:48.886Z,34.05
2023-02-05T21:53:36.641Z,35.15
2023-02-05T21:56:24.692Z,33.65
2023-02-05T21:59:15.471Z,33.67
2023-02-05T22:02:03.059Z,37.15
2023-02-05T22:04:51.737Z,38.45
2023-02-05T22:07:39.455Z,32.22
2023-02-05T22:10:27.024Z,34.58
2023-02-05T22:13:14.611Z,35.30
2023-02-05T22:16:06.537Z,33.90
2023-02-05T22:18:54.809Z,32.15
2023-02-05T22:21:44.324Z,32.15
2023-02-05T22:24:32.115Z,33.85
2023-02-05T22:27:19.830Z,34.55
2023-02-05T22:30:08.006Z,33.28
2023-02-05T22:32:55.496Z,33.78
2023-02-05T22:35:43.376Z,33.88
2023-02-05T22:38:34.383Z,34.42
2023-02-05T22:41:24.317Z,34.22
2023-02-05T22:44:12.904Z,36.45
2023-02-05T22:47:00.225Z,31.83
2023-02-05T22:49:47.798Z,32.22
2023-02-05T22:52:35.151Z,30.65
2023-02-05T22:55:23.931Z,30.10
2023-02-05T22:58:11.857Z,29.08
2023-02-05T23:00:59.602Z,31.85
2023-02-05T23:03:49.253Z,31.00
2023-02-05T23:06:38.237Z,30.65
2023-02-05T23:09:25.409Z,32.40
2023-02-05T23:12:14.065Z,29.55
2023-02-05T23:15:02.130Z,30.10
2023-02-05T23:17:49.668Z,30.77
2023-02-05T23:20:37.239Z,28.17
2023-02-05T23:23:24.736Z,27.45
2023-02-05T23:26:14.371Z,29.00
2023-02-05T23:29:03.399Z,28.67
2023-02-05T23:31:50.620Z,27.63
2023-02-05T23:34:38.140Z,27.80
2023-02-05T23:37:25.706Z,27.90
2023-02-05T23:40:13.969Z,28.42
2023-02-05T23:43:01.669Z,32.17
2023-02-05T23:45:51.328Z,29.52
2023-02-05T23:48:38.773Z,35.83
2023-02-05T23:51:26.616Z,41.63
2023-02-05T23:54:14.029Z,44.75
2023-02-05T23:57:01.258Z,47.72
2023-02-05T23:59:48.576Z,43.55
